createdAt,value
2017-11-05T00:01:11.162Z,12.10
2017-11-05T00:03:44.927Z,12.10
2017-11-05T00:06:18.494Z,12.10
2017-11-05T00:08:52.006Z,12.00
2017-11-05T00:11:26.214Z,12.10
2017-11-05T00:14:00.605Z,12.10
2017-11-05T00:16:35.003Z,12.00
2017-11-05T00:19:08.610Z,12.00
2017-11-05T00:21:42.139Z,12.00
2017-11-05T00:24:15.666Z,12.00
2017-11-05T00:26:49.175Z,12.00
2017-11-05T00:29:23.447Z,12.10
2017-11-05T00:31:57.766Z,12.10
2017-11-05T00:34:31.978Z,12.00
2017-11-05T00:37:05.510Z,12.00
2017-11-05T00:39:39.920Z,11.90
2017-11-05T00:42:15.165Z,11.80
2017-11-05T00:44:49.164Z,11.90
2017-11-05T00:47:22.901Z,11.80
2017-11-05T00:49:56.502Z,11.90
2017-11-05T00:52:30.311Z,11.90
2017-11-05T00:55:04.043Z,11.90
2017-11-05T00:57:38.013Z,12.00
2017-11-05T01:00:11.690Z,11.90
2017-11-05T01:02:45.427Z,12.00
2017-11-05T01:05:18.954Z,12.00
2017-11-05T01:07:52.481Z,12.00
2017-11-05T01:10:26.082Z,12.00
2017-11-05T01:12:59.691Z,12.00
2017-11-05T01:15:33.427Z,12.10
2017-11-05T01:18:07.092Z,12.20
2017-11-05T01:20:40.731Z,12.10
2017-11-05T01:23:14.197Z,12.20
2017-11-05T01:25:48.642Z,12.10
2017-11-05T01:28:22.350Z,12.10
2017-11-05T01:30:55.947Z,12.10
2017-11-05T01:33:29.638Z,12.20
2017-11-05T01:36:03.251Z,12.20
2017-11-05T01:38:37.064Z,12.20
2017-11-05T01:41:12.083Z,12.20
2017-11-05T01:43:45.799Z,12.20
2017-11-05T01:46:20.282Z,12.20
2017-11-05T01:48:53.815Z,12.10
2017-11-05T01:51:27.418Z,12.20
2017-11-05T01:54:00.986Z,12.20
2017-11-05T01:56:34.624Z,12.20
2017-11-05T01:59:08.907Z,12.20
2017-11-05T02:01:42.515Z,12.20
2017-11-05T02:04:16.750Z,12.20
2017-11-05T02:06:50.527Z,12.30
2017-11-05T02:09:24.266Z,12.30
2017-11-05T02:11:58.055Z,12.20
2017-11-05T02:14:31.771Z,12.20
2017-11-05T02:17:05.470Z,12.30
2017-11-05T02:19:39.015Z,12.40
2017-11-05T02:22:12.790Z,12.40
2017-11-05T02:24:46.454Z,12.40
2017-11-05T02:27:20.046Z,12.40
2017-11-05T02:29:53.634Z,12.40
2017-11-05T02:32:27.258Z,12.40
2017-11-05T02:35:00.843Z,12.40
2017-11-05T02:37:34.486Z,12.40
2017-11-05T02:40:08.579Z,12.40
2017-11-05T02:42:42.302Z,12.40
2017-11-05T02:45:16.111Z,12.30
2017-11-05T02:47:49.775Z,12.30
2017-11-05T02:50:23.405Z,12.30
2017-11-05T02:52:56.982Z,12.40
2017-11-05T02:55:30.565Z,12.40
2017-11-05T02:58:04.106Z,12.40
2017-11-05T03:00:37.573Z,12.40
2017-11-05T03:03:11.102Z,12.50
2017-11-05T03:05:44.566Z,12.50
2017-11-05T03:08:18.182Z,12.50
2017-11-05T03:10:51.794Z,12.60
2017-11-05T03:13:25.610Z,12.60
2017-11-05T03:16:00.130Z,12.60
2017-11-05T03:18:33.619Z,12.60
2017-11-05T03:21:07.438Z,12.70
2017-11-05T03:23:41.750Z,12.70
2017-11-05T03:26:16.071Z,12.70
2017-11-05T03:28:49.686Z,12.70
2017-11-05T03:31:24.262Z,12.70
2017-11-05T03:33:57.901Z,12.60
2017-11-05T03:36:31.498Z,12.60
2017-11-05T03:39:05.107Z,12.70
2017-11-05T03:41:38.802Z,12.60
2017-11-05T03:44:12.494Z,12.60
2017-11-05T03:46:46.070Z,12.50
2017-11-05T03:49:19.701Z,12.60
2017-11-05T03:51:53.406Z,12.60
2017-11-05T03:54:26.987Z,12.70
2017-11-05T03:57:00.610Z,12.70
2017-11-05T03:59:34.297Z,12.70
2017-11-05T04:02:07.990Z,12.70
2017-11-05T04:04:41.625Z,12.70
2017-11-05T04:07:15.228Z,12.70
2017-11-05T04:09:48.926Z,12.70
2017-11-05T04:12:22.378Z,12.80
2017-11-05T04:14:55.983Z,12.70
2017-11-05T04:17:29.482Z,12.70
2017-11-05T04:20:03.068Z,12.70
2017-11-05T04:22:36.726Z,12.70
2017-11-05T04:25:10.278Z,12.80
2017-11-05T04:27:43.818Z,12.80
2017-11-05T04:30:17.378Z,12.80
2017-11-05T04:32:51.018Z,12.70
2017-11-05T04:35:25.502Z,12.70
2017-11-05T04:37:59.086Z,12.70
2017-11-05T04:40:32.753Z,12.70
2017-11-05T04:43:06.356Z,12.80
2017-11-05T04:45:39.898Z,12.80
2017-11-05T04:48:13.446Z,12.80
2017-11-05T04:50:47.044Z,12.80
2017-11-05T04:53:21.542Z,12.80
2017-11-05T04:55:56.090Z,12.80
2017-11-05T04:58:29.563Z,12.80
2017-11-05T05:01:03.157Z,12.80
2017-11-05T05:03:36.890Z,12.80
2017-11-05T05:06:10.559Z,12.80
2017-11-05T05:08:44.105Z,12.80
2017-11-05T05:11:17.590Z,12.80
2017-11-05T05:13:51.398Z,12.80
2017-11-05T05:16:25.918Z,12.80
2017-11-05T05:18:59.487Z,12.80
2017-11-05T05:21:33.224Z,12.80
2017-11-05T05:24:07.509Z,12.70
2017-11-05T05:26:41.110Z,12.80
2017-11-05T05:29:14.598Z,12.80
2017-11-05T05:31:48.086Z,12.80
2017-11-05T05:34:21.709Z,12.80
2017-11-05T05:36:55.294Z,12.80
2017-11-05T05:39:28.937Z,12.80
2017-11-05T05:42:02.522Z,12.80
2017-11-05T05:44:37.047Z,12.80
2017-11-05T05:47:10.662Z,12.80
2017-11-05T05:49:44.366Z,12.80
2017-11-05T05:52:17.870Z,12.80
2017-11-05T05:54:51.581Z,12.80
2017-11-05T05:57:25.180Z,12.80
2017-11-05T05:59:58.770Z,12.80
2017-11-05T06:02:33.315Z,12.90
2017-11-05T06:05:07.782Z,12.80
2017-11-05T06:07:41.522Z,12.80
2017-11-05T06:10:16.014Z,12.80
2017-11-05T06:12:49.642Z,12.80
2017-11-05T06:15:24.162Z,12.80
2017-11-05T06:17:57.866Z,12.80
2017-11-05T06:20:31.679Z,12.80
2017-11-05T06:23:05.392Z,12.80
2017-11-05T06:25:39.868Z,12.90
2017-11-05T06:28:13.499Z,12.90
2017-11-05T06:30:47.362Z,12.90
2017-11-05T06:33:20.955Z,12.80
2017-11-05T06:35:54.667Z,12.80
2017-11-05T06:38:28.314Z,12.80
2017-11-05T06:41:01.925Z,12.80
2017-11-05T06:43:36.337Z,12.80
2017-11-05T06:46:09.938Z,12.80
2017-11-05T06:48:44.462Z,12.80
2017-11-05T06:51:18.779Z,12.90
2017-11-05T06:53:52.325Z,12.90
2017-11-05T06:56:26.183Z,12.90
2017-11-05T06:58:59.685Z,12.80
2017-11-05T07:01:33.170Z,12.80
2017-11-05T07:04:06.882Z,12.90
2017-11-05T07:06:41.407Z,12.80
2017-11-05T07:09:15.007Z,12.80
2017-11-05T07:11:48.514Z,12.80
2017-11-05T07:14:22.210Z,12.80
2017-11-05T07:16:55.914Z,12.80
2017-11-05T07:19:29.514Z,12.80
2017-11-05T07:22:03.070Z,12.90
2017-11-05T07:24:36.709Z,12.90
2017-11-05T07:27:10.310Z,12.80
2017-11-05T07:29:43.906Z,12.80
2017-11-05T07:32:18.202Z,12.80
2017-11-05T07:34:51.830Z,12.80
2017-11-05T07:37:25.399Z,12.80
2017-11-05T07:39:59.029Z,12.80
2017-11-05T07:42:32.481Z,12.80
2017-11-05T07:45:06.341Z,12.80
2017-11-05T07:47:40.762Z,12.90
2017-11-05T07:50:14.357Z,12.90
2017-11-05T07:52:48.062Z,12.90
2017-11-05T07:55:21.762Z,13.00
2017-11-05T07:57:55.432Z,12.90
2017-11-05T08:00:29.018Z,12.90
2017-11-05T08:03:02.878Z,13.00
2017-11-05T08:05:36.349Z,13.00
2017-11-05T08:08:09.978Z,12.90
2017-11-05T08:10:43.502Z,13.00
2017-11-05T08:13:17.173Z,13.00
2017-11-05T08:15:50.987Z,13.00
2017-11-05T08:18:24.790Z,12.90
2017-11-05T08:20:58.386Z,12.90
2017-11-05T08:23:31.890Z,13.00
2017-11-05T08:26:05.601Z,13.00
2017-11-05T08:28:39.306Z,13.00
2017-11-05T08:31:12.926Z,13.00
2017-11-05T08:33:47.395Z,12.90
2017-11-05T08:36:21.542Z,12.90
2017-11-05T08:38:55.697Z,13.00
2017-11-05T08:41:29.327Z,12.90
2017-11-05T08:44:02.918Z,13.00
2017-11-05T08:46:36.458Z,12.90
2017-11-05T08:49:10.146Z,12.90
2017-11-05T08:51:44.461Z,12.80
2017-11-05T08:54:18.034Z,12.80
2017-11-05T08:56:51.994Z,12.80
2017-11-05T08:59:25.514Z,12.80
2017-11-05T09:01:58.974Z,12.70
2017-11-05T09:04:33.258Z,12.70
2017-11-05T09:07:06.778Z,12.70
2017-11-05T09:09:40.321Z,12.70
2017-11-05T09:12:13.766Z,12.70
2017-11-05T09:14:47.286Z,12.60
2017-11-05T09:17:21.554Z,12.60
2017-11-05T09:19:55.067Z,12.60
2017-11-05T09:22:28.573Z,12.60
2017-11-05T09:25:02.098Z,12.60
2017-11-05T09:27:36.375Z,12.50
2017-11-05T09:30:09.950Z,12.60
2017-11-05T09:32:43.595Z,12.60
2017-11-05T09:35:17.810Z,12.60
2017-11-05T09:37:52.017Z,12.50
2017-11-05T09:40:26.434Z,12.50
2017-11-05T09:42:59.963Z,12.50
2017-11-05T09:45:33.595Z,12.50
2017-11-05T09:48:07.263Z,12.50
2017-11-05T09:50:40.850Z,12.50
2017-11-05T09:53:14.369Z,12.50
2017-11-05T09:55:47.806Z,12.50
2017-11-05T09:58:21.451Z,12.50
2017-11-05T10:00:55.858Z,12.40
2017-11-05T10:03:29.399Z,12.40
2017-11-05T10:06:03.657Z,12.40
2017-11-05T10:08:37.174Z,12.30
2017-11-05T10:11:11.370Z,12.40
2017-11-05T10:13:44.874Z,12.40
2017-11-05T10:16:19.312Z,12.30
2017-11-05T10:18:52.836Z,12.30
2017-11-05T10:21:26.465Z,12.30
2017-11-05T10:23:59.990Z,12.30
2017-11-05T10:26:33.426Z,12.30
2017-11-05T10:29:07.711Z,12.20
2017-11-05T10:31:41.930Z,12.30
2017-11-05T10:34:15.454Z,12.30
2017-11-05T10:36:49.861Z,12.30
2017-11-05T10:39:23.382Z,12.30
2017-11-05T10:41:56.822Z,12.30
2017-11-05T10:44:30.365Z,12.20
2017-11-05T10:47:03.884Z,12.20
2017-11-05T10:49:37.526Z,12.20
2017-11-05T10:52:11.071Z,12.20
2017-11-05T10:54:44.506Z,12.20
2017-11-05T10:57:18.151Z,12.20
2017-11-05T10:59:52.363Z,12.20
2017-11-05T11:02:26.578Z,12.20
2017-11-05T11:05:00.122Z,12.20
2017-11-05T11:07:33.630Z,12.20
2017-11-05T11:10:07.150Z,12.20
2017-11-05T11:12:40.663Z,12.20
2017-11-05T11:15:14.286Z,12.20
2017-11-05T11:17:47.795Z,12.20
2017-11-05T11:20:22.086Z,12.20
2017-11-05T11:22:56.290Z,12.20
2017-11-05T11:25:29.874Z,12.20
2017-11-05T11:28:03.519Z,12.20
2017-11-05T11:30:37.029Z,12.20
2017-11-05T11:33:10.471Z,12.10
2017-11-05T11:35:43.919Z,12.10
2017-11-05T11:38:17.440Z,12.10
2017-11-05T11:40:51.706Z,12.20
2017-11-05T11:43:26.127Z,12.20
2017-11-05T11:45:59.650Z,12.20
2017-11-05T11:48:33.088Z,12.10
2017-11-05T11:51:06.605Z,12.10
2017-11-05T11:53:40.047Z,12.10
2017-11-05T11:56:13.698Z,12.20
2017-11-05T11:58:47.198Z,12.20
2017-11-05T12:01:20.851Z,12.20
2017-11-05T12:03:54.302Z,12.20
2017-11-05T12:06:27.949Z,12.10
2017-11-05T12:09:01.515Z,12.10
2017-11-05T12:11:35.746Z,12.10
2017-11-05T12:14:09.294Z,12.10
2017-11-05T12:16:42.942Z,12.20
2017-11-05T12:19:16.502Z,12.20
2017-11-05T12:21:49.950Z,12.20
2017-11-05T12:24:24.163Z,12.20
2017-11-05T12:26:58.370Z,12.20
2017-11-05T12:29:31.886Z,12.20
2017-11-05T12:32:05.531Z,12.20
2017-11-05T12:34:39.203Z,12.20
2017-11-05T12:37:12.638Z,12.10
2017-11-05T12:39:46.157Z,12.10
2017-11-05T12:42:19.598Z,12.20
2017-11-05T12:44:53.881Z,12.20
2017-11-05T12:47:28.293Z,12.10
2017-11-05T12:50:02.014Z,12.10
2017-11-05T12:52:35.535Z,12.10
2017-11-05T12:55:09.194Z,12.20
2017-11-05T12:57:42.723Z,12.20
2017-11-05T13:00:16.945Z,12.10
2017-11-05T13:02:51.158Z,12.10
2017-11-05T13:05:24.606Z,12.10
2017-11-05T13:07:58.111Z,12.10
2017-11-05T13:10:31.754Z,12.20
2017-11-05T13:13:05.191Z,12.20
2017-11-05T13:15:38.755Z,12.20
2017-11-05T13:18:12.194Z,12.10
2017-11-05T13:20:45.850Z,12.10
2017-11-05T13:23:20.246Z,12.10
2017-11-05T13:25:53.774Z,12.10
2017-11-05T13:28:27.237Z,12.10
2017-11-05T13:31:00.831Z,12.10
2017-11-05T13:33:34.274Z,12.10
2017-11-05T13:36:07.710Z,12.10
2017-11-05T13:38:41.149Z,12.10
2017-11-05T13:41:15.571Z,12.10
2017-11-05T13:43:49.774Z,12.10
2017-11-05T13:46:23.292Z,12.00
2017-11-05T13:48:57.679Z,12.10
2017-11-05T13:51:31.272Z,12.10
2017-11-05T13:54:05.613Z,12.10
2017-11-05T13:56:39.153Z,12.10
2017-11-05T13:59:12.682Z,12.20
2017-11-05T14:01:46.208Z,12.20
2017-11-05T14:04:19.653Z,12.20
2017-11-05T14:06:53.287Z,12.10
2017-11-05T14:09:26.797Z,12.10
2017-11-05T14:12:00.434Z,12.10
2017-11-05T14:14:33.882Z,12.10
2017-11-05T14:17:07.395Z,12.10
2017-11-05T14:19:40.905Z,12.10
2017-11-05T14:22:14.444Z,12.10
2017-11-05T14:24:48.122Z,12.10
2017-11-05T14:27:21.650Z,12.10
2017-11-05T14:29:55.921Z,12.10
2017-11-05T14:32:29.446Z,12.10
2017-11-05T14:35:03.846Z,12.00
2017-11-05T14:37:37.382Z,12.00
2017-11-05T14:40:11.650Z,12.00
2017-11-05T14:42:45.164Z,12.00
2017-11-05T14:45:18.677Z,12.00
2017-11-05T14:47:52.120Z,12.00
2017-11-05T14:50:25.558Z,12.00
2017-11-05T14:53:00.118Z,12.00
2017-11-05T14:55:33.711Z,12.00
2017-11-05T14:58:07.255Z,12.00
2017-11-05T15:00:41.474Z,12.00
2017-11-05T15:03:15.011Z,12.00
2017-11-05T15:05:48.521Z,12.00
2017-11-05T15:08:22.170Z,12.00
2017-11-05T15:10:55.678Z,12.00
2017-11-05T15:13:29.270Z,12.10
2017-11-05T15:16:02.811Z,12.00
2017-11-05T15:18:36.453Z,11.90
2017-11-05T15:21:10.099Z,11.90
2017-11-05T15:23:44.306Z,11.90
2017-11-05T15:26:17.822Z,11.90
2017-11-05T15:28:51.462Z,11.90
2017-11-05T15:31:25.833Z,11.90
2017-11-05T15:34:00.043Z,11.90
2017-11-05T15:36:34.366Z,11.90
2017-11-05T15:39:08.566Z,11.90
2017-11-05T15:41:42.890Z,11.90
2017-11-05T15:44:17.099Z,11.80
2017-11-05T15:46:50.611Z,11.80
2017-11-05T15:49:24.910Z,11.80
2017-11-05T15:51:58.443Z,11.80
2017-11-05T15:54:31.951Z,11.80
2017-11-05T15:57:05.426Z,11.80
2017-11-05T15:59:38.955Z,11.70
2017-11-05T16:02:12.476Z,11.70
2017-11-05T16:04:46.119Z,11.70
2017-11-05T16:07:20.321Z,11.70
2017-11-05T16:09:53.841Z,11.70
2017-11-05T16:12:27.389Z,11.70
2017-11-05T16:15:00.939Z,11.70
2017-11-05T16:17:34.445Z,11.60
2017-11-05T16:20:07.979Z,11.60
2017-11-05T16:22:41.426Z,11.60
2017-11-05T16:25:15.835Z,11.60
2017-11-05T16:27:49.367Z,11.60
2017-11-05T16:30:22.878Z,11.60
2017-11-05T16:32:57.163Z,11.60
2017-11-05T16:35:31.370Z,11.50
2017-11-05T16:38:05.699Z,11.50
2017-11-05T16:40:39.899Z,11.50
2017-11-05T16:43:13.411Z,11.50
2017-11-05T16:45:46.914Z,11.50
2017-11-05T16:48:20.591Z,11.50
2017-11-05T16:50:54.123Z,11.50
2017-11-05T16:53:28.409Z,11.50
2017-11-05T16:56:01.930Z,11.50
2017-11-05T16:58:35.559Z,11.50
2017-11-05T17:01:09.826Z,11.50
2017-11-05T17:03:44.150Z,11.50
2017-11-05T17:06:17.670Z,11.50
2017-11-05T17:08:51.198Z,11.50
2017-11-05T17:11:24.778Z,11.50
2017-11-05T17:13:59.070Z,11.50
2017-11-05T17:16:33.270Z,11.50
2017-11-05T17:19:06.778Z,11.50
2017-11-05T17:21:40.423Z,11.60
2017-11-05T17:24:14.068Z,11.50
2017-11-05T17:26:47.603Z,11.50
2017-11-05T17:29:22.023Z,11.50
2017-11-05T17:31:55.482Z,11.50
2017-11-05T17:34:28.917Z,11.50
2017-11-05T17:37:03.206Z,11.50
2017-11-05T17:39:36.731Z,11.50
2017-11-05T17:42:11.039Z,11.40
2017-11-05T17:44:44.562Z,11.40
2017-11-05T17:47:18.849Z,11.40
2017-11-05T17:49:52.342Z,11.40
2017-11-05T17:52:26.022Z,11.40
2017-11-05T17:54:59.527Z,11.30
2017-11-05T17:57:33.051Z,11.40
2017-11-05T18:00:06.702Z,11.40
2017-11-05T18:02:41.071Z,11.40
2017-11-05T18:05:15.274Z,11.40
2017-11-05T18:07:48.790Z,11.30
2017-11-05T18:10:22.303Z,11.30
2017-11-05T18:12:56.710Z,11.40
2017-11-05T18:15:30.917Z,11.40
2017-11-05T18:18:04.509Z,11.40
2017-11-05T18:20:38.030Z,11.30
2017-11-05T18:23:11.678Z,11.30
2017-11-05T18:25:45.113Z,11.30
2017-11-05T18:28:18.782Z,11.20
2017-11-05T18:30:52.218Z,11.30
2017-11-05T18:33:26.646Z,11.30
2017-11-05T18:36:01.051Z,11.30
2017-11-05T18:38:34.587Z,11.30
2017-11-05T18:41:08.162Z,11.20
2017-11-05T18:43:42.574Z,11.20
2017-11-05T18:46:16.777Z,11.20
2017-11-05T18:48:50.290Z,11.20
2017-11-05T18:51:24.598Z,11.20
2017-11-05T18:53:58.122Z,11.20
2017-11-05T18:56:31.587Z,11.30
2017-11-05T18:59:05.130Z,11.30
2017-11-05T19:01:38.566Z,11.30
2017-11-05T19:04:12.210Z,11.30
2017-11-05T19:06:45.722Z,11.30
2017-11-05T19:09:19.169Z,11.20
2017-11-05T19:11:52.674Z,11.30
2017-11-05T19:14:26.326Z,11.30
2017-11-05T19:17:00.601Z,11.20
2017-11-05T19:19:34.150Z,11.20
2017-11-05T19:22:07.604Z,11.20
2017-11-05T19:24:41.248Z,11.20
2017-11-05T19:27:14.778Z,11.20
2017-11-05T19:29:48.427Z,11.10
2017-11-05T19:32:22.732Z,11.20
2017-11-05T19:34:56.933Z,11.20
2017-11-05T19:37:30.451Z,11.20
2017-11-05T19:40:03.954Z,11.10
2017-11-05T19:42:37.478Z,11.10
2017-11-05T19:45:11.756Z,11.00
2017-11-05T19:47:45.277Z,11.00
2017-11-05T19:50:18.918Z,11.00
2017-11-05T19:52:52.438Z,11.10
2017-11-05T19:55:25.950Z,11.10
2017-11-05T19:57:59.598Z,11.00
2017-11-05T20:00:33.238Z,11.00
2017-11-05T20:03:06.686Z,11.10
2017-11-05T20:05:40.243Z,11.00
2017-11-05T20:08:13.762Z,11.00
2017-11-05T20:10:47.275Z,11.10
2017-11-05T20:13:21.554Z,11.00
2017-11-05T20:15:55.208Z,11.00
2017-11-05T20:18:29.494Z,11.00
2017-11-05T20:21:03.703Z,11.10
2017-11-05T20:23:37.237Z,11.00
2017-11-05T20:26:10.766Z,11.10
2017-11-05T20:28:44.288Z,11.20
2017-11-05T20:31:17.822Z,11.10
2017-11-05T20:33:52.106Z,11.00
2017-11-05T20:36:26.522Z,11.00
2017-11-05T20:39:00.182Z,11.00
2017-11-05T20:41:34.462Z,11.00
2017-11-05T20:44:07.930Z,11.00
2017-11-05T20:46:41.366Z,11.00
2017-11-05T20:49:15.020Z,11.10
2017-11-05T20:51:48.450Z,11.10
2017-11-05T20:54:21.978Z,11.00
2017-11-05T20:56:55.558Z,11.00
2017-11-05T20:59:29.979Z,11.10
2017-11-05T21:02:04.178Z,11.10
2017-11-05T21:04:37.810Z,11.10
2017-11-05T21:07:11.251Z,11.20
2017-11-05T21:09:44.892Z,11.10
2017-11-05T21:12:18.411Z,11.00
2017-11-05T21:14:51.850Z,11.00
2017-11-05T21:17:25.394Z,11.00
2017-11-05T21:19:59.795Z,11.00
2017-11-05T21:22:33.318Z,10.90
2017-11-05T21:25:07.606Z,11.00
2017-11-05T21:27:41.078Z,11.00
2017-11-05T21:30:14.522Z,11.00
2017-11-05T21:32:48.038Z,11.00
2017-11-05T21:35:22.310Z,10.90
2017-11-05T21:37:56.629Z,11.00
2017-11-05T21:40:30.157Z,11.00
2017-11-05T21:43:03.678Z,10.90
2017-11-05T21:45:37.314Z,10.90
2017-11-05T21:48:10.985Z,10.90
2017-11-05T21:50:44.413Z,10.90
2017-11-05T21:53:18.074Z,10.90
2017-11-05T21:55:51.576Z,10.90
2017-11-05T21:58:25.871Z,10.90
2017-11-05T22:00:59.330Z,10.90
2017-11-05T22:03:32.854Z,10.90
2017-11-05T22:06:06.510Z,10.80
2017-11-05T22:08:40.166Z,10.80
2017-11-05T22:11:13.679Z,10.80
2017-11-05T22:13:47.123Z,10.80
2017-11-05T22:16:20.758Z,10.90
2017-11-05T22:18:54.278Z,10.90
2017-11-05T22:21:27.794Z,10.80
2017-11-05T22:24:01.430Z,10.90
2017-11-05T22:26:34.941Z,10.90
2017-11-05T22:29:08.488Z,10.90
2017-11-05T22:31:42.770Z,10.80
2017-11-05T22:34:16.290Z,10.80
2017-11-05T22:36:49.730Z,10.80
2017-11-05T22:39:23.254Z,10.90
2017-11-05T22:41:56.890Z,10.90
2017-11-05T22:44:31.189Z,10.80
2017-11-05T22:47:05.391Z,10.70
2017-11-05T22:49:38.918Z,10.70
2017-11-05T22:52:13.217Z,10.70
2017-11-05T22:54:46.749Z,10.70
2017-11-05T22:57:20.186Z,10.70
2017-11-05T22:59:53.778Z,10.70
2017-11-05T23:02:27.219Z,10.70
2017-11-05T23:05:00.749Z,10.80
2017-11-05T23:07:35.009Z,10.80
2017-11-05T23:10:08.543Z,10.80
2017-11-05T23:12:42.130Z,10.80
2017-11-05T23:15:16.583Z,10.60
2017-11-05T23:17:50.846Z,10.70
2017-11-05T23:20:24.375Z,10.70
2017-11-05T23:22:57.894Z,10.60
2017-11-05T23:25:31.450Z,10.70
2017-11-05T23:28:04.983Z,10.70
2017-11-05T23:30:38.497Z,10.70
2017-11-05T23:33:12.794Z,10.60
2017-11-05T23:35:46.302Z,10.60
2017-11-05T23:38:19.848Z,10.60
2017-11-05T23:40:53.363Z,10.50
2017-11-05T23:43:27.795Z,10.60
2017-11-05T23:46:02.022Z,10.60
2017-11-05T23:48:36.218Z,10.60
2017-11-05T23:51:09.845Z,10.60
2017-11-05T23:53:43.457Z,10.60
2017-11-05T23:56:17.849Z,10.60
2017-11-05T23:58:51.881Z,10.60
